sensor_id;sensor_type;location;lat;lon;timestamp;P1;durP1;ratioP1;P2;durP2;ratioP2
52380;SDS011;38310;52.796;6.942;2022-08-19T00:01:35;11.15;;;8.27;;
52380;SDS011;38310;52.796;6.942;2022-08-19T00:04:03;11.10;;;8.32;;
52380;SDS011;38310;52.796;6.942;2022-08-19T00:06:31;13.05;;;8.23;;
52380;SDS011;38310;52.796;6.942;2022-08-19T00:08:57;10.27;;;7.88;;
52380;SDS011;38310;52.796;6.942;2022-08-19T00:11:25;13.20;;;8.80;;
52380;SDS011;38310;52.796;6.942;2022-08-19T00:17:15;13.77;;;9.27;;
52380;SDS011;38310;52.796;6.942;2022-08-19T00:19:40;10.77;;;7.55;;
52380;SDS011;38310;52.796;6.942;2022-08-19T00:22:06;12.73;;;8.70;;
52380;SDS011;38310;52.796;6.942;2022-08-19T00:24:33;13.20;;;8.90;;
52380;SDS011;38310;52.796;6.942;2022-08-19T00:27:00;12.75;;;8.23;;
52380;SDS011;38310;52.796;6.942;2022-08-19T00:29:27;12.13;;;8.98;;
52380;SDS011;38310;52.796;6.942;2022-08-19T00:31:53;15.60;;;8.98;;
52380;SDS011;38310;52.796;6.942;2022-08-19T00:34:21;11.68;;;8.98;;
52380;SDS011;38310;52.796;6.942;2022-08-19T00:36:47;12.02;;;8.82;;
52380;SDS011;38310;52.796;6.942;2022-08-19T00:39:14;13.13;;;9.60;;
52380;SDS011;38310;52.796;6.942;2022-08-19T00:41:41;13.35;;;9.57;;
52380;SDS011;38310;52.796;6.942;2022-08-19T00:44:13;11.90;;;9.00;;
52380;SDS011;38310;52.796;6.942;2022-08-19T00:46:42;14.30;;;8.73;;
52380;SDS011;38310;52.796;6.942;2022-08-19T00:49:19;12.32;;;9.02;;
52380;SDS011;38310;52.796;6.942;2022-08-19T00:52:20;14.85;;;9.07;;
52380;SDS011;38310;52.796;6.942;2022-08-19T00:54:54;13.10;;;9.02;;
52380;SDS011;38310;52.796;6.942;2022-08-19T00:57:22;14.20;;;10.15;;
52380;SDS011;38310;52.796;6.942;2022-08-19T00:59:55;14.00;;;9.25;;
52380;SDS011;38310;52.796;6.942;2022-08-19T01:02:23;12.18;;;9.25;;
52380;SDS011;38310;52.796;6.942;2022-08-19T01:04:49;12.57;;;9.20;;
52380;SDS011;38310;52.796;6.942;2022-08-19T01:07:15;16.95;;;11.10;;
52380;SDS011;38310;52.796;6.942;2022-08-19T01:09:41;12.98;;;9.30;;
52380;SDS011;38310;52.796;6.942;2022-08-19T01:12:07;17.75;;;10.77;;
52380;SDS011;38310;52.796;6.942;2022-08-19T01:14:34;13.75;;;10.07;;
52380;SDS011;38310;52.796;6.942;2022-08-19T01:17:02;12.75;;;9.15;;
52380;SDS011;38310;52.796;6.942;2022-08-19T01:19:32;15.18;;;10.02;;
52380;SDS011;38310;52.796;6.942;2022-08-19T01:24:49;16.27;;;11.05;;
52380;SDS011;38310;52.796;6.942;2022-08-19T01:27:15;12.35;;;9.15;;
52380;SDS011;38310;52.796;6.942;2022-08-19T01:29:42;18.15;;;10.27;;
52380;SDS011;38310;52.796;6.942;2022-08-19T01:32:11;18.08;;;12.02;;
52380;SDS011;38310;52.796;6.942;2022-08-19T01:34:38;16.40;;;11.45;;
52380;SDS011;38310;52.796;6.942;2022-08-19T01:37:08;14.57;;;9.65;;
52380;SDS011;38310;52.796;6.942;2022-08-19T01:39:36;12.88;;;9.93;;
52380;SDS011;38310;52.796;6.942;2022-08-19T01:42:03;15.85;;;11.65;;
52380;SDS011;38310;52.796;6.942;2022-08-19T01:44:30;15.13;;;10.57;;
52380;SDS011;38310;52.796;6.942;2022-08-19T01:46:56;16.48;;;11.30;;
52380;SDS011;38310;52.796;6.942;2022-08-19T01:49:22;14.68;;;10.57;;
52380;SDS011;38310;52.796;6.942;2022-08-19T01:51:51;14.88;;;10.15;;
52380;SDS011;38310;52.796;6.942;2022-08-19T01:54:19;14.65;;;10.60;;
52380;SDS011;38310;52.796;6.942;2022-08-19T01:56:46;16.90;;;10.55;;
52380;SDS011;38310;52.796;6.942;2022-08-19T01:59:14;14.77;;;9.68;;
52380;SDS011;38310;52.796;6.942;2022-08-19T02:01:43;18.90;;;11.50;;
52380;SDS011;38310;52.796;6.942;2022-08-19T02:04:09;15.07;;;11.40;;
52380;SDS011;38310;52.796;6.942;2022-08-19T02:06:35;15.60;;;10.98;;
52380;SDS011;38310;52.796;6.942;2022-08-19T02:09:03;17.00;;;11.57;;
52380;SDS011;38310;52.796;6.942;2022-08-19T02:11:31;16.50;;;11.50;;
52380;SDS011;38310;52.796;6.942;2022-08-19T02:13:59;17.83;;;11.88;;
52380;SDS011;38310;52.796;6.942;2022-08-19T02:16:27;14.98;;;10.82;;
52380;SDS011;38310;52.796;6.942;2022-08-19T02:18:53;15.77;;;11.40;;
52380;SDS011;38310;52.796;6.942;2022-08-19T02:21:20;16.45;;;11.27;;
52380;SDS011;38310;52.796;6.942;2022-08-19T02:23:48;15.15;;;9.93;;
52380;SDS011;38310;52.796;6.942;2022-08-19T02:26:14;16.65;;;9.95;;
52380;SDS011;38310;52.796;6.942;2022-08-19T02:28:41;16.77;;;11.07;;
52380;SDS011;38310;52.796;6.942;2022-08-19T02:31:19;14.88;;;9.73;;
52380;SDS011;38310;52.796;6.942;2022-08-19T02:33:50;14.10;;;10.60;;
52380;SDS011;38310;52.796;6.942;2022-08-19T02:36:17;14.82;;;10.23;;
52380;SDS011;38310;52.796;6.942;2022-08-19T02:38:43;16.60;;;10.50;;
52380;SDS011;38310;52.796;6.942;2022-08-19T02:41:20;15.18;;;10.93;;
52380;SDS011;38310;52.796;6.942;2022-08-19T02:43:51;17.35;;;12.00;;
52380;SDS011;38310;52.796;6.942;2022-08-19T02:46:18;17.40;;;11.15;;
52380;SDS011;38310;52.796;6.942;2022-08-19T02:48:53;18.40;;;11.63;;
52380;SDS011;38310;52.796;6.942;2022-08-19T02:51:25;17.40;;;11.45;;
52380;SDS011;38310;52.796;6.942;2022-08-19T02:53:53;19.00;;;12.25;;
52380;SDS011;38310;52.796;6.942;2022-08-19T02:58:46;17.73;;;10.85;;
52380;SDS011;38310;52.796;6.942;2022-08-19T03:01:19;15.38;;;10.65;;
52380;SDS011;38310;52.796;6.942;2022-08-19T03:03:50;15.32;;;10.48;;
52380;SDS011;38310;52.796;6.942;2022-08-19T03:06:16;15.10;;;9.93;;
52380;SDS011;38310;52.796;6.942;2022-08-19T03:08:43;16.42;;;11.60;;
52380;SDS011;38310;52.796;6.942;2022-08-19T03:11:14;17.17;;;11.27;;
52380;SDS011;38310;52.796;6.942;2022-08-19T03:13:48;15.98;;;10.95;;
52380;SDS011;38310;52.796;6.942;2022-08-19T03:16:16;25.63;;;11.65;;
52380;SDS011;38310;52.796;6.942;2022-08-19T03:18:43;16.42;;;10.55;;
52380;SDS011;38310;52.796;6.942;2022-08-19T03:21:20;18.08;;;11.85;;
52380;SDS011;38310;52.796;6.942;2022-08-19T03:23:49;15.65;;;10.80;;
52380;SDS011;38310;52.796;6.942;2022-08-19T03:26:15;16.20;;;11.00;;
52380;SDS011;38310;52.796;6.942;2022-08-19T03:28:41;15.07;;;10.43;;
52380;SDS011;38310;52.796;6.942;2022-08-19T03:31:13;21.40;;;12.35;;
52380;SDS011;38310;52.796;6.942;2022-08-19T03:33:39;15.32;;;10.35;;
52380;SDS011;38310;52.796;6.942;2022-08-19T03:36:17;15.68;;;11.00;;
52380;SDS011;38310;52.796;6.942;2022-08-19T03:38:53;19.85;;;11.63;;
52380;SDS011;38310;52.796;6.942;2022-08-19T03:41:22;17.80;;;12.35;;
52380;SDS011;38310;52.796;6.942;2022-08-19T03:43:54;16.40;;;10.37;;
52380;SDS011;38310;52.796;6.942;2022-08-19T03:46:27;18.88;;;11.38;;
52380;SDS011;38310;52.796;6.942;2022-08-19T03:48:55;15.50;;;11.13;;
52380;SDS011;38310;52.796;6.942;2022-08-19T03:53:56;17.50;;;11.30;;
52380;SDS011;38310;52.796;6.942;2022-08-19T03:56:23;16.98;;;11.25;;
52380;SDS011;38310;52.796;6.942;2022-08-19T03:58:51;22.08;;;12.38;;
52380;SDS011;38310;52.796;6.942;2022-08-19T04:01:18;20.63;;;12.50;;
52380;SDS011;38310;52.796;6.942;2022-08-19T04:03:46;17.13;;;11.40;;
52380;SDS011;38310;52.796;6.942;2022-08-19T04:06:16;19.65;;;12.35;;
52380;SDS011;38310;52.796;6.942;2022-08-19T04:08:47;17.88;;;11.23;;
52380;SDS011;38310;52.796;6.942;2022-08-19T04:11:17;18.73;;;12.80;;
52380;SDS011;38310;52.796;6.942;2022-08-19T04:13:48;19.13;;;12.00;;
52380;SDS011;38310;52.796;6.942;2022-08-19T04:16:16;19.80;;;12.52;;
52380;SDS011;38310;52.796;6.942;2022-08-19T04:18:44;18.92;;;10.98;;
52380;SDS011;38310;52.796;6.942;2022-08-19T04:21:15;18.73;;;12.05;;
52380;SDS011;38310;52.796;6.942;2022-08-19T04:23:51;16.58;;;10.73;;
52380;SDS011;38310;52.796;6.942;2022-08-19T04:26:19;18.90;;;12.80;;
52380;SDS011;38310;52.796;6.942;2022-08-19T04:28:47;16.83;;;11.65;;
52380;SDS011;38310;52.796;6.942;2022-08-19T04:31:13;22.00;;;14.27;;
52380;SDS011;38310;52.796;6.942;2022-08-19T04:33:40;19.48;;;12.73;;
52380;SDS011;38310;52.796;6.942;2022-08-19T04:36:06;20.52;;;12.20;;
52380;SDS011;38310;52.796;6.942;2022-08-19T04:38:35;18.90;;;12.43;;
52380;SDS011;38310;52.796;6.942;2022-08-19T04:41:02;21.00;;;14.20;;
52380;SDS011;38310;52.796;6.942;2022-08-19T04:43:47;17.20;;;11.00;;
52380;SDS011;38310;52.796;6.942;2022-08-19T04:46:14;19.75;;;13.18;;
52380;SDS011;38310;52.796;6.942;2022-08-19T04:48:40;18.80;;;13.18;;
52380;SDS011;38310;52.796;6.942;2022-08-19T04:51:07;19.23;;;12.20;;
52380;SDS011;38310;52.796;6.942;2022-08-19T04:53:36;19.00;;;13.05;;
52380;SDS011;38310;52.796;6.942;2022-08-19T04:58:34;21.63;;;14.40;;
52380;SDS011;38310;52.796;6.942;2022-08-19T05:01:03;18.80;;;11.77;;
52380;SDS011;38310;52.796;6.942;2022-08-19T05:03:29;23.00;;;14.70;;
52380;SDS011;38310;52.796;6.942;2022-08-19T05:06:03;23.48;;;16.23;;
52380;SDS011;38310;52.796;6.942;2022-08-19T05:08:35;30.92;;;18.25;;
52380;SDS011;38310;52.796;6.942;2022-08-19T05:11:06;33.67;;;19.52;;
52380;SDS011;38310;52.796;6.942;2022-08-19T05:13:34;35.22;;;20.50;;
52380;SDS011;38310;52.796;6.942;2022-08-19T05:15:59;38.90;;;20.52;;
52380;SDS011;38310;52.796;6.942;2022-08-19T05:18:25;29.88;;;19.40;;
52380;SDS011;38310;52.796;6.942;2022-08-19T05:21:11;32.95;;;18.35;;
52380;SDS011;38310;52.796;6.942;2022-08-19T05:23:57;27.08;;;17.98;;
52380;SDS011;38310;52.796;6.942;2022-08-19T05:26:23;29.25;;;17.88;;
52380;SDS011;38310;52.796;6.942;2022-08-19T05:28:53;29.67;;;18.30;;
52380;SDS011;38310;52.796;6.942;2022-08-19T05:31:19;29.48;;;17.80;;
52380;SDS011;38310;52.796;6.942;2022-08-19T05:33:45;31.17;;;18.17;;
52380;SDS011;38310;52.796;6.942;2022-08-19T05:36:11;35.90;;;19.20;;
52380;SDS011;38310;52.796;6.942;2022-08-19T05:38:38;27.58;;;17.55;;
52380;SDS011;38310;52.796;6.942;2022-08-19T05:41:10;33.83;;;18.83;;
52380;SDS011;38310;52.796;6.942;2022-08-19T05:43:38;28.17;;;17.48;;
52380;SDS011;38310;52.796;6.942;2022-08-19T05:46:04;28.70;;;17.42;;
52380;SDS011;38310;52.796;6.942;2022-08-19T05:48:32;31.88;;;18.88;;
52380;SDS011;38310;52.796;6.942;2022-08-19T05:51:02;31.35;;;17.52;;
52380;SDS011;38310;52.796;6.942;2022-08-19T05:53:32;27.15;;;16.33;;
52380;SDS011;38310;52.796;6.942;2022-08-19T05:56:03;28.85;;;19.17;;
52380;SDS011;38310;52.796;6.942;2022-08-19T05:58:30;25.15;;;17.42;;
52380;SDS011;38310;52.796;6.942;2022-08-19T06:00:56;29.48;;;17.77;;
52380;SDS011;38310;52.796;6.942;2022-08-19T06:03:22;30.83;;;17.95;;
52380;SDS011;38310;52.796;6.942;2022-08-19T06:05:48;26.50;;;16.92;;
52380;SDS011;38310;52.796;6.942;2022-08-19T06:08:13;31.95;;;20.02;;
52380;SDS011;38310;52.796;6.942;2022-08-19T06:10:39;31.55;;;18.55;;
52380;SDS011;38310;52.796;6.942;2022-08-19T06:13:05;32.30;;;19.65;;
52380;SDS011;38310;52.796;6.942;2022-08-19T06:15:30;29.75;;;19.05;;
52380;SDS011;38310;52.796;6.942;2022-08-19T06:17:56;33.40;;;17.35;;
52380;SDS011;38310;52.796;6.942;2022-08-19T06:20:22;29.88;;;17.67;;
52380;SDS011;38310;52.796;6.942;2022-08-19T06:22:48;24.88;;;16.77;;
52380;SDS011;38310;52.796;6.942;2022-08-19T06:25:16;26.98;;;17.10;;
52380;SDS011;38310;52.796;6.942;2022-08-19T06:27:42;29.23;;;16.42;;
52380;SDS011;38310;52.796;6.942;2022-08-19T06:30:08;28.45;;;16.92;;
52380;SDS011;38310;52.796;6.942;2022-08-19T06:32:35;24.85;;;16.42;;
52380;SDS011;38310;52.796;6.942;2022-08-19T06:35:01;21.85;;;14.70;;
52380;SDS011;38310;52.796;6.942;2022-08-19T06:37:26;22.42;;;13.90;;
52380;SDS011;38310;52.796;6.942;2022-08-19T06:39:52;21.40;;;14.35;;
52380;SDS011;38310;52.796;6.942;2022-08-19T06:42:18;21.05;;;13.35;;
52380;SDS011;38310;52.796;6.942;2022-08-19T06:44:45;19.85;;;12.82;;
52380;SDS011;38310;52.796;6.942;2022-08-19T06:47:18;21.77;;;14.18;;
52380;SDS011;38310;52.796;6.942;2022-08-19T06:49:45;21.23;;;14.27;;
52380;SDS011;38310;52.796;6.942;2022-08-19T06:52:11;20.27;;;13.88;;
52380;SDS011;38310;52.796;6.942;2022-08-19T06:54:40;20.73;;;13.63;;
52380;SDS011;38310;52.796;6.942;2022-08-19T06:57:07;19.67;;;12.95;;
52380;SDS011;38310;52.796;6.942;2022-08-19T06:59:38;22.35;;;14.35;;
52380;SDS011;38310;52.796;6.942;2022-08-19T07:02:04;21.02;;;12.80;;
52380;SDS011;38310;52.796;6.942;2022-08-19T07:04:32;18.63;;;13.40;;
52380;SDS011;38310;52.796;6.942;2022-08-19T07:07:03;21.33;;;13.70;;
52380;SDS011;38310;52.796;6.942;2022-08-19T07:09:33;21.15;;;13.10;;
52380;SDS011;38310;52.796;6.942;2022-08-19T07:12:02;17.33;;;11.98;;
52380;SDS011;38310;52.796;6.942;2022-08-19T07:14:30;18.73;;;11.90;;
52380;SDS011;38310;52.796;6.942;2022-08-19T07:16:56;18.33;;;12.32;;
52380;SDS011;38310;52.796;6.942;2022-08-19T07:19:23;14.95;;;11.55;;
52380;SDS011;38310;52.796;6.942;2022-08-19T07:21:54;14.73;;;10.88;;
52380;SDS011;38310;52.796;6.942;2022-08-19T07:24:21;17.52;;;11.02;;
52380;SDS011;38310;52.796;6.942;2022-08-19T07:26:50;17.63;;;11.40;;
52380;SDS011;38310;52.796;6.942;2022-08-19T07:29:17;16.55;;;11.43;;
52380;SDS011;38310;52.796;6.942;2022-08-19T07:31:44;17.90;;;10.35;;
52380;SDS011;38310;52.796;6.942;2022-08-19T07:34:10;14.35;;;10.23;;
52380;SDS011;38310;52.796;6.942;2022-08-19T07:36:40;14.85;;;10.38;;
52380;SDS011;38310;52.796;6.942;2022-08-19T07:39:11;15.45;;;10.60;;
52380;SDS011;38310;52.796;6.942;2022-08-19T07:41:39;14.23;;;10.13;;
52380;SDS011;38310;52.796;6.942;2022-08-19T07:44:05;16.90;;;11.32;;
52380;SDS011;38310;52.796;6.942;2022-08-19T07:46:33;18.40;;;11.25;;
52380;SDS011;38310;52.796;6.942;2022-08-19T07:49:01;18.85;;;10.05;;
52380;SDS011;38310;52.796;6.942;2022-08-19T07:51:28;13.07;;;10.25;;
52380;SDS011;38310;52.796;6.942;2022-08-19T07:53:54;13.80;;;10.13;;
52380;SDS011;38310;52.796;6.942;2022-08-19T07:56:21;15.07;;;10.27;;
52380;SDS011;38310;52.796;6.942;2022-08-19T07:58:48;14.77;;;10.20;;
52380;SDS011;38310;52.796;6.942;2022-08-19T08:01:17;15.52;;;10.88;;
52380;SDS011;38310;52.796;6.942;2022-08-19T08:03:49;14.43;;;10.98;;
52380;SDS011;38310;52.796;6.942;2022-08-19T08:06:34;13.55;;;9.93;;
52380;SDS011;38310;52.796;6.942;2022-08-19T08:09:21;13.65;;;10.88;;
52380;SDS011;38310;52.796;6.942;2022-08-19T08:11:54;18.92;;;11.40;;
52380;SDS011;38310;52.796;6.942;2022-08-19T08:16:53;14.10;;;10.48;;
52380;SDS011;38310;52.796;6.942;2022-08-19T08:19:19;16.42;;;11.00;;
52380;SDS011;38310;52.796;6.942;2022-08-19T08:21:47;16.88;;;11.88;;
52380;SDS011;38310;52.796;6.942;2022-08-19T08:24:14;15.20;;;11.50;;
52380;SDS011;38310;52.796;6.942;2022-08-19T08:26:41;12.20;;;10.05;;
52380;SDS011;38310;52.796;6.942;2022-08-19T08:29:09;17.55;;;11.27;;
52380;SDS011;38310;52.796;6.942;2022-08-19T08:31:36;16.27;;;11.20;;
52380;SDS011;38310;52.796;6.942;2022-08-19T08:34:02;13.20;;;8.73;;
52380;SDS011;38310;52.796;6.942;2022-08-19T08:36:29;14.40;;;9.85;;
52380;SDS011;38310;52.796;6.942;2022-08-19T08:38:58;11.27;;;8.65;;
52380;SDS011;38310;52.796;6.942;2022-08-19T08:41:32;14.75;;;10.95;;
52380;SDS011;38310;52.796;6.942;2022-08-19T08:44:03;17.90;;;12.80;;
52380;SDS011;38310;52.796;6.942;2022-08-19T08:46:37;15.82;;;11.32;;
52380;SDS011;38310;52.796;6.942;2022-08-19T08:51:51;16.80;;;12.90;;
52380;SDS011;38310;52.796;6.942;2022-08-19T08:54:23;13.63;;;11.00;;
52380;SDS011;38310;52.796;6.942;2022-08-19T08:56:53;12.68;;;9.75;;
52380;SDS011;38310;52.796;6.942;2022-08-19T08:59:29;14.00;;;10.60;;
52380;SDS011;38310;52.796;6.942;2022-08-19T09:01:59;13.55;;;10.25;;
52380;SDS011;38310;52.796;6.942;2022-08-19T09:04:25;12.85;;;9.82;;
52380;SDS011;38310;52.796;6.942;2022-08-19T09:10:14;12.98;;;8.25;;
52380;SDS011;38310;52.796;6.942;2022-08-19T09:12:25;12.38;;;9.65;;
52380;SDS011;38310;52.796;6.942;2022-08-19T09:15:29;12.02;;;7.68;;
52380;SDS011;38310;52.796;6.942;2022-08-19T09:18:02;15.88;;;11.43;;
52380;SDS011;38310;52.796;6.942;2022-08-19T09:20:29;11.52;;;9.15;;
52380;SDS011;38310;52.796;6.942;2022-08-19T09:22:56;12.07;;;8.18;;
52380;SDS011;38310;52.796;6.942;2022-08-19T09:25:23;11.65;;;9.65;;
52380;SDS011;38310;52.796;6.942;2022-08-19T09:27:51;11.55;;;8.48;;
52380;SDS011;38310;52.796;6.942;2022-08-19T09:30:26;9.43;;;6.53;;
52380;SDS011;38310;52.796;6.942;2022-08-19T09:32:56;12.80;;;9.20;;
52380;SDS011;38310;52.796;6.942;2022-08-19T09:35:22;14.30;;;10.82;;
52380;SDS011;38310;52.796;6.942;2022-08-19T09:37:53;14.85;;;11.15;;
52380;SDS011;38310;52.796;6.942;2022-08-19T09:40:19;10.80;;;9.13;;
52380;SDS011;38310;52.796;6.942;2022-08-19T09:42:45;10.95;;;8.38;;
52380;SDS011;38310;52.796;6.942;2022-08-19T09:45:13;11.00;;;8.85;;
52380;SDS011;38310;52.796;6.942;2022-08-19T09:47:39;13.10;;;10.63;;
52380;SDS011;38310;52.796;6.942;2022-08-19T09:50:06;12.82;;;9.30;;
52380;SDS011;38310;52.796;6.942;2022-08-19T09:52:33;13.02;;;7.65;;
52380;SDS011;38310;52.796;6.942;2022-08-19T09:55:05;12.40;;;7.70;;
52380;SDS011;38310;52.796;6.942;2022-08-19T09:57:32;11.50;;;8.43;;
52380;SDS011;38310;52.796;6.942;2022-08-19T09:59:58;10.90;;;8.68;;
52380;SDS011;38310;52.796;6.942;2022-08-19T10:02:36;10.23;;;7.97;;
52380;SDS011;38310;52.796;6.942;2022-08-19T10:05:02;10.05;;;7.95;;
52380;SDS011;38310;52.796;6.942;2022-08-19T10:08:03;8.80;;;6.82;;
52380;SDS011;38310;52.796;6.942;2022-08-19T10:10:29;10.07;;;6.95;;
52380;SDS011;38310;52.796;6.942;2022-08-19T10:12:59;8.85;;;6.57;;
52380;SDS011;38310;52.796;6.942;2022-08-19T10:15:25;8.73;;;6.32;;
52380;SDS011;38310;52.796;6.942;2022-08-19T10:17:51;8.38;;;5.93;;
52380;SDS011;38310;52.796;6.942;2022-08-19T10:20:16;11.80;;;6.00;;
52380;SDS011;38310;52.796;6.942;2022-08-19T10:22:44;7.28;;;5.03;;
52380;SDS011;38310;52.796;6.942;2022-08-19T10:25:09;5.72;;;4.90;;
52380;SDS011;38310;52.796;6.942;2022-08-19T10:27:36;10.82;;;6.47;;
52380;SDS011;38310;52.796;6.942;2022-08-19T10:30:03;7.78;;;6.40;;
52380;SDS011;38310;52.796;6.942;2022-08-19T10:32:29;9.57;;;6.80;;
52380;SDS011;38310;52.796;6.942;2022-08-19T10:34:56;8.48;;;5.93;;
52380;SDS011;38310;52.796;6.942;2022-08-19T10:37:22;7.13;;;5.60;;
52380;SDS011;38310;52.796;6.942;2022-08-19T10:39:47;9.43;;;7.10;;
52380;SDS011;38310;52.796;6.942;2022-08-19T10:42:14;7.65;;;5.68;;
52380;SDS011;38310;52.796;6.942;2022-08-19T10:44:41;8.55;;;7.65;;
52380;SDS011;38310;52.796;6.942;2022-08-19T10:47:07;9.93;;;8.32;;
52380;SDS011;38310;52.796;6.942;2022-08-19T10:49:34;9.18;;;6.78;;
52380;SDS011;38310;52.796;6.942;2022-08-19T10:52:19;8.00;;;5.97;;
52380;SDS011;38310;52.796;6.942;2022-08-19T10:55:05;7.53;;;6.38;;
52380;SDS011;38310;52.796;6.942;2022-08-19T10:57:52;10.18;;;7.65;;
52380;SDS011;38310;52.796;6.942;2022-08-19T11:00:22;11.18;;;8.00;;
52380;SDS011;38310;52.796;6.942;2022-08-19T11:02:49;10.38;;;7.25;;
52380;SDS011;38310;52.796;6.942;2022-08-19T11:05:15;10.20;;;7.78;;
52380;SDS011;38310;52.796;6.942;2022-08-19T11:07:42;11.55;;;7.82;;
52380;SDS011;38310;52.796;6.942;2022-08-19T11:10:09;9.55;;;7.82;;
52380;SDS011;38310;52.796;6.942;2022-08-19T11:12:37;9.25;;;7.25;;
52380;SDS011;38310;52.796;6.942;2022-08-19T11:15:05;8.98;;;7.47;;
52380;SDS011;38310;52.796;6.942;2022-08-19T11:17:35;8.40;;;7.60;;
52380;SDS011;38310;52.796;6.942;2022-08-19T11:23:08;6.70;;;6.00;;
52380;SDS011;38310;52.796;6.942;2022-08-19T11:25:34;12.50;;;8.73;;
52380;SDS011;38310;52.796;6.942;2022-08-19T11:28:03;9.20;;;7.20;;
52380;SDS011;38310;52.796;6.942;2022-08-19T11:30:30;8.80;;;6.30;;
52380;SDS011;38310;52.796;6.942;2022-08-19T11:32:55;8.68;;;6.07;;
52380;SDS011;38310;52.796;6.942;2022-08-19T11:35:21;8.70;;;6.78;;
52380;SDS011;38310;52.796;6.942;2022-08-19T11:37:48;8.20;;;6.78;;
52380;SDS011;38310;52.796;6.942;2022-08-19T11:40:14;7.82;;;6.43;;
52380;SDS011;38310;52.796;6.942;2022-08-19T11:42:39;7.57;;;6.13;;
52380;SDS011;38310;52.796;6.942;2022-08-19T11:45:21;8.63;;;6.82;;
52380;SDS011;38310;52.796;6.942;2022-08-19T11:47:51;8.48;;;6.70;;
52380;SDS011;38310;52.796;6.942;2022-08-19T11:50:18;7.35;;;6.35;;
52380;SDS011;38310;52.796;6.942;2022-08-19T11:52:45;7.30;;;6.03;;
52380;SDS011;38310;52.796;6.942;2022-08-19T11:55:14;6.45;;;5.25;;
52380;SDS011;38310;52.796;6.942;2022-08-19T11:57:40;8.52;;;5.40;;
52380;SDS011;38310;52.796;6.942;2022-08-19T12:00:07;8.93;;;6.90;;
52380;SDS011;38310;52.796;6.942;2022-08-19T12:02:35;8.70;;;6.85;;
52380;SDS011;38310;52.796;6.942;2022-08-19T12:05:01;11.60;;;8.60;;
52380;SDS011;38310;52.796;6.942;2022-08-19T12:07:28;8.70;;;7.10;;
52380;SDS011;38310;52.796;6.942;2022-08-19T12:09:56;8.02;;;6.63;;
52380;SDS011;38310;52.796;6.942;2022-08-19T12:12:21;7.18;;;6.13;;
52380;SDS011;38310;52.796;6.942;2022-08-19T12:14:49;8.18;;;5.95;;
52380;SDS011;38310;52.796;6.942;2022-08-19T12:17:25;8.25;;;5.68;;
52380;SDS011;38310;52.796;6.942;2022-08-19T12:19:55;7.07;;;6.13;;
52380;SDS011;38310;52.796;6.942;2022-08-19T12:22:21;7.65;;;5.82;;
52380;SDS011;38310;52.796;6.942;2022-08-19T12:24:47;8.15;;;6.85;;
52380;SDS011;38310;52.796;6.942;2022-08-19T12:27:15;8.00;;;6.10;;
52380;SDS011;38310;52.796;6.942;2022-08-19T12:29:41;11.45;;;8.00;;
52380;SDS011;38310;52.796;6.942;2022-08-19T12:32:06;7.97;;;7.18;;
52380;SDS011;38310;52.796;6.942;2022-08-19T12:34:34;9.52;;;7.82;;
52380;SDS011;38310;52.796;6.942;2022-08-19T12:37:02;8.23;;;6.60;;
52380;SDS011;38310;52.796;6.942;2022-08-19T12:39:33;10.45;;;8.05;;
52380;SDS011;38310;52.796;6.942;2022-08-19T12:42:00;10.30;;;8.07;;
52380;SDS011;38310;52.796;6.942;2022-08-19T12:44:26;9.20;;;7.30;;
52380;SDS011;38310;52.796;6.942;2022-08-19T12:46:52;8.77;;;7.63;;
52380;SDS011;38310;52.796;6.942;2022-08-19T12:49:18;9.23;;;8.00;;
52380;SDS011;38310;52.796;6.942;2022-08-19T12:51:44;10.60;;;8.10;;
52380;SDS011;38310;52.796;6.942;2022-08-19T12:54:11;9.73;;;7.97;;
52380;SDS011;38310;52.796;6.942;2022-08-19T12:56:37;8.80;;;7.28;;
52380;SDS011;38310;52.796;6.942;2022-08-19T12:59:03;9.85;;;8.82;;
52380;SDS011;38310;52.796;6.942;2022-08-19T13:01:29;12.13;;;8.88;;
52380;SDS011;38310;52.796;6.942;2022-08-19T13:03:58;9.25;;;7.50;;
52380;SDS011;38310;52.796;6.942;2022-08-19T13:06:24;9.40;;;8.18;;
52380;SDS011;38310;52.796;6.942;2022-08-19T13:08:51;9.50;;;7.35;;
52380;SDS011;38310;52.796;6.942;2022-08-19T13:11:18;7.80;;;7.00;;
52380;SDS011;38310;52.796;6.942;2022-08-19T13:13:46;8.45;;;7.43;;
52380;SDS011;38310;52.796;6.942;2022-08-19T13:16:15;10.57;;;7.45;;
52380;SDS011;38310;52.796;6.942;2022-08-19T13:18:42;9.57;;;7.88;;
52380;SDS011;38310;52.796;6.942;2022-08-19T13:21:11;10.50;;;7.85;;
52380;SDS011;38310;52.796;6.942;2022-08-19T13:23:45;8.65;;;7.10;;
52380;SDS011;38310;52.796;6.942;2022-08-19T13:26:12;9.80;;;7.85;;
52380;SDS011;38310;52.796;6.942;2022-08-19T13:28:38;9.82;;;8.20;;
52380;SDS011;38310;52.796;6.942;2022-08-19T13:31:24;9.63;;;7.78;;
52380;SDS011;38310;52.796;6.942;2022-08-19T13:34:13;8.50;;;7.50;;
52380;SDS011;38310;52.796;6.942;2022-08-19T13:36:40;10.10;;;8.68;;
52380;SDS011;38310;52.796;6.942;2022-08-19T13:39:06;15.95;;;7.72;;
52380;SDS011;38310;52.796;6.942;2022-08-19T13:41:36;7.18;;;6.47;;
52380;SDS011;38310;52.796;6.942;2022-08-19T13:44:03;8.55;;;6.80;;
52380;SDS011;38310;52.796;6.942;2022-08-19T13:46:29;7.13;;;6.00;;
52380;SDS011;38310;52.796;6.942;2022-08-19T13:48:55;8.90;;;6.45;;
52380;SDS011;38310;52.796;6.942;2022-08-19T13:51:22;6.93;;;5.78;;
52380;SDS011;38310;52.796;6.942;2022-08-19T13:53:48;6.82;;;5.97;;
52380;SDS011;38310;52.796;6.942;2022-08-19T13:56:16;6.13;;;5.53;;
52380;SDS011;38310;52.796;6.942;2022-08-19T13:58:44;9.13;;;6.57;;
52380;SDS011;38310;52.796;6.942;2022-08-19T14:01:11;7.95;;;5.45;;
52380;SDS011;38310;52.796;6.942;2022-08-19T14:03:37;8.52;;;4.90;;
52380;SDS011;38310;52.796;6.942;2022-08-19T14:06:03;5.90;;;4.60;;
52380;SDS011;38310;52.796;6.942;2022-08-19T14:08:29;7.38;;;5.32;;
52380;SDS011;38310;52.796;6.942;2022-08-19T14:10:57;7.22;;;5.72;;
52380;SDS011;38310;52.796;6.942;2022-08-19T14:13:23;7.30;;;5.93;;
52380;SDS011;38310;52.796;6.942;2022-08-19T14:15:50;8.70;;;6.82;;
52380;SDS011;38310;52.796;6.942;2022-08-19T14:18:17;8.07;;;6.57;;
52380;SDS011;38310;52.796;6.942;2022-08-19T14:20:43;8.65;;;6.47;;
52380;SDS011;38310;52.796;6.942;2022-08-19T14:23:09;7.97;;;6.40;;
52380;SDS011;38310;52.796;6.942;2022-08-19T14:25:40;6.93;;;6.03;;
52380;SDS011;38310;52.796;6.942;2022-08-19T14:28:06;6.93;;;5.55;;
52380;SDS011;38310;52.796;6.942;2022-08-19T14:30:33;7.10;;;4.80;;
52380;SDS011;38310;52.796;6.942;2022-08-19T14:33:02;7.03;;;5.07;;
52380;SDS011;38310;52.796;6.942;2022-08-19T14:35:30;7.70;;;5.43;;
52380;SDS011;38310;52.796;6.942;2022-08-19T14:38:01;6.45;;;5.75;;
52380;SDS011;38310;52.796;6.942;2022-08-19T14:40:28;7.55;;;5.75;;
52380;SDS011;38310;52.796;6.942;2022-08-19T14:42:57;7.40;;;5.00;;
52380;SDS011;38310;52.796;6.942;2022-08-19T14:45:29;7.75;;;5.95;;
52380;SDS011;38310;52.796;6.942;2022-08-19T14:47:57;6.57;;;5.18;;
52380;SDS011;38310;52.796;6.942;2022-08-19T14:50:24;6.40;;;5.00;;
52380;SDS011;38310;52.796;6.942;2022-08-19T14:53:04;7.47;;;5.50;;
52380;SDS011;38310;52.796;6.942;2022-08-19T14:55:33;8.13;;;5.05;;
52380;SDS011;38310;52.796;6.942;2022-08-19T14:57:59;9.82;;;6.53;;
52380;SDS011;38310;52.796;6.942;2022-08-19T15:00:26;9.30;;;6.25;;
52380;SDS011;38310;52.796;6.942;2022-08-19T15:02:52;9.10;;;6.15;;
52380;SDS011;38310;52.796;6.942;2022-08-19T15:05:21;7.75;;;6.72;;